Time;durP1;ratioP1;P1;durP2;ratioP2;P2;SDS_P1;SDS_P2;PMS_P1;PMS_P2;Temp;Humidity;BMP_temperature;BMP_pressure;BME280_temperature;BME280_humidity;BME280_pressure;Samples;Min_cycle;Max_cycle;Signal;HPM_P1;HPM_P2
2023/12/08 00:02:07;;;;;;;21.80;12.57;;;;;;;-143.21;93.10;73772.03;5012374;28;20321;-85
2023/12/08 00:04:34;;;;;;;20.20;12.23;;;;;;;-143.21;93.06;73772.03;5012935;28;20281;-85
2023/12/08 00:07:01;;;;;;;22.20;13.13;;;;;;;-143.21;93.11;73772.03;5012831;28;20219;-86
2023/12/08 00:09:29;;;;;;;22.70;13.30;;;;;;;-143.21;93.06;73772.03;5012314;28;20661;-81
2023/12/08 00:11:57;;;;;;;21.97;13.03;;;;;;;-143.21;92.93;73774.03;5012438;28;20644;-81
2023/12/08 00:14:24;;;;;;;21.03;12.47;;;;;;;-143.21;93.47;73781.97;5012166;28;20208;-82
2023/12/08 00:16:52;;;;;;;18.93;11.50;;;;;;;-143.21;93.16;73779.97;5011680;28;20205;-82
2023/12/08 00:19:19;;;;;;;19.27;11.47;;;;;;;-143.21;93.18;73781.97;5012127;28;20203;-82
2023/12/08 00:21:45;;;;;;;21.40;12.33;;;;;;;-143.21;93.05;73787.91;5012141;28;20229;-82
2023/12/08 00:24:13;;;;;;;19.50;12.30;;;;;;;-143.21;93.04;73779.97;5012952;28;20187;-83
2023/12/08 00:26:40;;;;;;;22.37;13.67;;;;;;;-143.21;93.06;73781.97;5021018;28;20255;-82
2023/12/08 00:29:06;;;;;;;17.10;11.23;;;;;;;-143.21;92.99;73778.00;5018635;28;20282;-83
2023/12/08 00:31:33;;;;;;;23.47;12.37;;;;;;;-143.21;92.51;73770.06;5014313;28;20203;-83
2023/12/08 00:34:02;;;;;;;20.63;12.70;;;;;;;-143.21;92.78;73779.97;5012106;28;20653;-82
2023/12/08 00:36:29;;;;;;;20.17;12.80;;;;;;;-143.21;92.71;73774.03;5012346;28;20206;-82
2023/12/08 00:38:55;;;;;;;18.63;12.27;;;;;;;-143.21;92.96;73770.06;5012161;28;20202;-82
2023/12/08 00:41:22;;;;;;;21.90;12.30;;;;;;;-143.21;92.79;73779.97;5012097;28;20701;-85
2023/12/08 00:43:49;;;;;;;19.30;11.53;;;;;;;-143.21;93.16;73772.03;5012024;28;20267;-83
2023/12/08 00:46:17;;;;;;;17.50;11.20;;;;;;;-143.21;92.27;73748.22;5027419;28;20272;-83
2023/12/08 00:48:44;;;;;;;17.57;11.63;;;;;;;-143.21;91.39;73738.31;5031484;28;20214;-85
2023/12/08 00:51:14;;;;;;;19.87;11.47;;;;;;;-143.21;91.18;73728.41;5031357;28;20657;-83
2023/12/08 00:53:41;;;;;;;19.40;11.07;;;;;;;-143.21;90.44;73730.38;5032093;28;20671;-83
2023/12/08 00:56:09;;;;;;;17.00;10.37;;;;;;;-143.21;89.05;73742.28;5031919;28;20214;-84
2023/12/08 00:58:37;;;;;;;18.10;10.07;;;;;;;-143.21;89.77;73766.09;5031180;28;20269;-82
2023/12/08 01:01:04;;;;;;;18.63;11.20;;;;;;;-143.21;90.87;73766.09;5031487;28;20194;-83
2023/12/08 01:03:31;;;;;;;16.83;10.33;;;;;;;-143.21;90.33;73748.22;5032351;28;20256;-82
2023/12/08 01:05:58;;;;;;;22.33;10.43;;;;;;;-143.21;89.89;73744.25;5031185;28;20199;-82
2023/12/08 01:08:26;;;;;;;16.30;9.83;;;;;;;-143.21;89.84;73758.16;5031718;28;20198;-82
2023/12/08 01:10:53;;;;;;;16.37;8.60;;;;;;;-143.21;90.29;73768.06;5031164;28;20717;-86
2023/12/08 01:13:20;;;;;;;13.90;9.17;;;;;;;-143.21;90.54;73772.03;5030898;28;20221;-83
2023/12/08 01:15:47;;;;;;;16.60;10.23;;;;;;;-143.21;90.38;73766.09;5019556;28;20210;-84
2023/12/08 01:18:14;;;;;;;16.33;9.87;;;;;;;-143.21;90.13;73770.06;5011919;28;20198;-84
2023/12/08 01:20:41;;;;;;;17.73;9.93;;;;;;;-143.21;90.05;73758.16;5011875;28;20222;-85
2023/12/08 01:23:08;;;;;;;17.87;10.50;;;;;;;-143.21;89.70;73758.16;5012222;28;20238;-83
2023/12/08 01:25:36;;;;;;;20.13;11.37;;;;;;;-143.21;89.24;73752.19;5011803;28;20282;-89
2023/12/08 01:28:03;;;;;;;19.23;10.90;;;;;;;-143.21;89.23;73746.25;5012293;28;20287;-89
2023/12/08 01:30:30;;;;;;;18.23;11.17;;;;;;;-143.21;89.31;73730.38;5012279;28;20199;-90
2023/12/08 01:32:56;;;;;;;22.93;11.50;;;;;;;-143.21;89.16;73726.41;5011337;28;20199;-86
2023/12/08 01:35:23;;;;;;;18.80;11.43;;;;;;;-143.21;89.51;73718.47;5027261;28;20573;-84
2023/12/08 01:37:50;;;;;;;18.67;11.93;;;;;;;-143.21;89.06;73710.53;5031277;28;20555;-84
2023/12/08 01:40:17;;;;;;;20.40;11.00;;;;;;;-143.21;89.00;73716.50;5031223;28;20198;-84
2023/12/08 01:42:47;;;;;;;19.30;11.07;;;;;;;-143.21;88.87;73718.47;5031200;28;20594;-85
2023/12/08 01:45:14;;;;;;;22.77;12.93;;;;;;;-143.21;88.46;73732.38;5031638;28;20203;-85
2023/12/08 01:47:43;;;;;;;20.50;12.33;;;;;;;-143.21;88.61;73742.28;5030856;28;20202;-85
2023/12/08 01:50:12;;;;;;;19.80;11.97;;;;;;;-143.21;89.40;73752.19;5034748;28;20203;-85
2023/12/08 01:52:39;;;;;;;21.27;12.73;;;;;;;-143.21;90.05;73744.25;5033952;28;20202;-83
2023/12/08 01:55:07;;;;;;;20.00;12.27;;;;;;;-143.21;90.11;73728.41;5026113;28;20203;-84
2023/12/08 01:57:34;;;;;;;19.60;11.77;;;;;;;-143.21;89.85;73714.50;5014940;28;20253;-84
2023/12/08 02:00:03;;;;;;;22.23;12.57;;;;;;;-143.21;89.21;73702.59;5021276;28;20202;-84
2023/12/08 02:02:30;;;;;;;19.20;12.03;;;;;;;-143.21;88.88;73700.63;5034328;28;20252;-84
2023/12/08 02:04:59;;;;;;;22.17;12.57;;;;;;;-143.21;88.40;73686.72;5034439;28;20272;-92
2023/12/08 02:07:26;;;;;;;21.77;12.00;;;;;;;-143.21;87.17;73682.75;5035336;28;20195;-92
2023/12/08 02:09:53;;;;;;;21.10;12.63;;;;;;;-143.21;87.19;73678.78;5035559;28;20213;-92
2023/12/08 02:12:20;;;;;;;22.20;12.50;;;;;;;-143.21;87.09;73672.84;5036057;28;20619;-90
2023/12/08 02:14:52;;;;;;;25.30;12.83;;;;;;;-143.21;86.63;73678.78;5036754;28;20183;-91
2023/12/08 02:17:25;;;;;;;24.27;12.50;;;;;;;-143.21;86.35;73686.72;5038974;28;20186;-89
2023/12/08 02:19:52;;;;;;;20.20;11.17;;;;;;;-143.21;86.09;73676.81;5036174;28;20217;-90
2023/12/08 02:22:23;;;;;;;19.97;12.17;;;;;;;-143.21;85.05;73688.72;5034380;28;20317;-90
2023/12/08 02:24:52;;;;;;;18.37;10.70;;;;;;;-143.21;85.30;73696.66;5035601;28;20191;-88
2023/12/08 02:27:19;;;;;;;19.00;11.17;;;;;;;-143.21;84.68;73720.47;5035863;28;20198;-91
2023/12/08 02:29:46;;;;;;;21.03;11.60;;;;;;;-143.21;85.22;73744.25;5035851;28;20199;-89
2023/12/08 02:32:26;;;;;;;20.07;11.47;;;;;;;-143.21;86.62;73760.13;5035317;28;20187;-88
2023/12/08 02:34:53;;;;;;;19.00;11.53;;;;;;;-143.21;87.35;73758.16;5035968;28;20190;-92
2023/12/08 02:37:22;;;;;;;21.23;12.30;;;;;;;-143.21;87.85;73738.31;5035543;28;20284;-86
2023/12/08 02:39:51;;;;;;;17.47;11.13;;;;;;;-143.21;87.51;73728.41;5033877;28;20252;-87
2023/12/08 02:42:18;;;;;;;18.87;11.53;;;;;;;-143.21;86.69;73722.44;5033543;28;20226;-87
2023/12/08 02:44:45;;;;;;;19.20;11.50;;;;;;;-143.21;87.04;73718.47;5030349;28;20199;-85
2023/12/08 02:47:12;;;;;;;19.33;11.33;;;;;;;-143.21;86.52;73704.59;5013762;28;20286;-86
2023/12/08 02:49:39;;;;;;;18.33;11.73;;;;;;;-143.21;86.12;73692.69;5013763;28;20203;-85
2023/12/08 02:52:06;;;;;;;16.80;10.83;;;;;;;-143.21;85.69;73688.72;5013523;28;20192;-85
2023/12/08 02:54:33;;;;;;;19.97;11.83;;;;;;;-143.21;85.27;73682.75;5013750;28;20206;-84
2023/12/08 02:57:01;;;;;;;18.40;11.40;;;;;;;-143.21;84.93;73678.78;5013676;28;20249;-86
2023/12/08 02:59:28;;;;;;;21.30;12.40;;;;;;;-143.21;84.65;73668.88;5013412;28;20200;-86
2023/12/08 03:01:54;;;;;;;18.27;11.40;;;;;;;-143.21;84.25;73704.59;5013404;28;20199;-85
2023/12/08 03:04:21;;;;;;;17.90;11.13;;;;;;;-143.21;84.44;73740.28;5013355;28;20670;-84
2023/12/08 03:06:48;;;;;;;20.37;11.83;;;;;;;-143.21;85.80;73752.19;5013382;28;20203;-85
2023/12/08 03:09:15;;;;;;;21.83;12.83;;;;;;;-143.21;86.56;73752.19;5013130;28;20210;-85
2023/12/08 03:11:42;;;;;;;23.67;12.70;;;;;;;-143.21;86.98;73748.22;5014974;28;20198;-84
2023/12/08 03:14:10;;;;;;;20.03;12.30;;;;;;;-143.21;86.80;73718.47;5032852;28;20190;-85
2023/12/08 03:16:37;;;;;;;20.97;11.83;;;;;;;-143.21;86.06;73704.59;5014240;28;20590;-85
2023/12/08 03:19:04;;;;;;;18.47;11.23;;;;;;;-143.21;85.51;73700.63;5012728;28;20203;-84
2023/12/08 03:21:30;;;;;;;16.60;9.60;;;;;;;-143.21;85.04;73708.56;5012828;28;20206;-85
2023/12/08 03:23:57;;;;;;;17.10;10.13;;;;;;;-143.21;85.28;73724.44;5012729;28;20220;-84
2023/12/08 03:26:24;;;;;;;18.10;10.57;;;;;;;-143.21;85.41;73734.34;5012761;28;20191;-83
2023/12/08 03:28:51;;;;;;;19.37;11.27;;;;;;;-143.21;85.75;73752.19;5012606;28;20203;-83
2023/12/08 03:31:24;;;;;;;16.83;9.43;;;;;;;-143.21;85.70;73752.19;5012460;28;20277;-84
2023/12/08 03:33:51;;;;;;;19.73;10.37;;;;;;;-143.21;86.19;73746.25;5012498;28;20207;-82
2023/12/08 03:36:18;;;;;;;16.27;10.07;;;;;;;-143.21;85.89;73724.44;5013227;28;20207;-82
2023/12/08 03:38:45;;;;;;;15.43;10.10;;;;;;;-143.21;85.15;73716.50;5012455;28;20199;-84
2023/12/08 03:41:12;;;;;;;18.80;10.27;;;;;;;-143.21;84.88;73712.53;5012593;28;20209;-84
2023/12/08 03:43:39;;;;;;;17.47;11.20;;;;;;;-143.21;84.89;73710.53;5012347;28;20222;-84
2023/12/08 03:46:06;;;;;;;17.80;11.30;;;;;;;-143.21;84.57;73720.47;5027490;28;20296;-84
2023/12/08 03:48:35;;;;;;;19.53;12.17;;;;;;;-143.21;85.44;73738.31;5032198;28;20202;-84
2023/12/08 03:51:02;;;;;;;22.80;12.97;;;;;;;-143.21;85.85;73744.25;5032238;28;20210;-84
2023/12/08 03:53:30;;;;;;;18.27;11.47;;;;;;;-143.21;85.81;73772.03;5032177;28;20202;-85
2023/12/08 03:55:57;;;;;;;16.60;10.07;;;;;;;-143.21;86.62;73791.88;5032245;28;20205;-85
2023/12/08 03:58:23;;;;;;;20.07;11.47;;;;;;;-143.21;87.51;73774.03;5031690;28;20208;-83
2023/12/08 04:00:50;;;;;;;17.57;10.50;;;;;;;-143.21;87.22;73768.06;5033340;28;20202;-91
2023/12/08 04:03:17;;;;;;;19.80;11.10;;;;;;;-143.21;87.64;73772.03;5040919;28;20227;-89
2023/12/08 04:05:45;;;;;;;16.17;10.40;;;;;;;-143.21;87.94;73778.00;5041386;28;20581;-92
2023/12/08 04:08:12;;;;;;;17.77;10.30;;;;;;;-143.21;87.68;73758.16;5033938;28;20197;-92
2023/12/08 04:10:40;;;;;;;15.53;9.90;;;;;;;-143.21;87.45;73748.22;5034800;28;20197;-91
2023/12/08 04:13:07;;;;;;;16.60;10.03;;;;;;;-143.21;87.04;73740.28;5036186;28;20222;-86
2023/12/08 04:15:34;;;;;;;16.67;9.80;;;;;;;-143.21;87.00;73736.34;5032285;28;20674;-87
2023/12/08 04:18:01;;;;;;;15.23;9.43;;;;;;;-143.21;86.56;73740.28;5031906;28;20194;-86
2023/12/08 04:20:27;;;;;;;15.53;9.47;;;;;;;-143.21;87.01;73756.16;5033127;28;20202;-87
2023/12/08 04:22:56;;;;;;;15.63;9.83;;;;;;;-143.21;86.87;73738.31;5031867;28;20226;-86
2023/12/08 04:25:22;;;;;;;17.37;10.10;;;;;;;-143.21;86.83;73750.22;5033394;28;20202;-86
2023/12/08 04:27:49;;;;;;;21.67;11.43;;;;;;;-143.21;87.01;73748.22;5040515;28;20206;-86
2023/12/08 04:30:16;;;;;;;16.00;10.30;;;;;;;-143.21;87.08;73748.22;5044353;28;20206;-85
2023/12/08 04:32:43;;;;;;;21.03;11.03;;;;;;;-143.21;87.25;73756.16;5047462;28;20233;-88
2023/12/08 04:35:10;;;;;;;15.33;10.13;;;;;;;-143.21;87.90;73766.09;5036963;28;20666;-87
2023/12/08 04:37:37;;;;;;;16.43;10.50;;;;;;;-143.21;88.20;73779.97;5032278;28;20717;-83
2023/12/08 04:40:06;;;;;;;16.37;10.23;;;;;;;-143.21;88.07;73760.13;5031999;28;20206;-83
2023/12/08 04:42:36;;;;;;;18.00;10.50;;;;;;;-143.21;87.30;73760.13;5031747;28;20227;-83
2023/12/08 04:45:03;;;;;;;17.00;10.30;;;;;;;-143.21;87.17;73772.03;5026482;28;20211;-82
2023/12/08 04:47:30;;;;;;;15.10;9.87;;;;;;;-143.21;88.00;73774.03;5011845;28;20205;-83
2023/12/08 04:49:57;;;;;;;15.80;10.17;;;;;;;-143.21;88.40;73768.06;5011732;28;20205;-84
2023/12/08 04:52:24;;;;;;;17.33;10.60;;;;;;;-143.21;88.39;73772.03;5012378;28;20200;-82
2023/12/08 04:54:51;;;;;;;17.47;10.40;;;;;;;-143.21;87.87;73772.03;5011302;28;20289;-76
2023/12/08 04:57:19;;;;;;;17.50;10.67;;;;;;;-143.21;88.00;73760.13;5011171;28;20198;-75
2023/12/08 04:59:45;;;;;;;16.53;10.73;;;;;;;-143.21;87.46;73750.22;5010405;28;20249;-76
2023/12/08 05:02:12;;;;;;;18.00;11.03;;;;;;;-143.21;86.97;73740.28;5010911;28;20562;-75
2023/12/08 05:04:39;;;;;;;18.80;10.80;;;;;;;-143.21;86.32;73738.31;5010468;28;20226;-76
2023/12/08 05:07:06;;;;;;;19.67;10.80;;;;;;;-143.21;86.52;73742.28;5010745;28;20217;-75
2023/12/08 05:09:33;;;;;;;18.57;10.80;;;;;;;-143.21;86.19;73738.31;5017999;28;20324;-76
2023/12/08 05:11:59;;;;;;;18.10;10.77;;;;;;;-143.21;85.80;73732.38;5022779;28;20239;-74
2023/12/08 05:14:27;;;;;;;19.27;11.43;;;;;;;-143.21;85.86;73736.34;5030432;28;20261;-76
2023/12/08 05:16:54;;;;;;;22.40;11.00;;;;;;;-143.21;85.91;73740.28;5011373;28;20251;-75
2023/12/08 05:19:22;;;;;;;18.47;10.80;;;;;;;-143.21;85.53;73740.28;5010533;28;20603;-75
2023/12/08 05:21:49;;;;;;;15.07;9.53;;;;;;;-143.21;85.64;73738.31;5015763;28;20213;-76
2023/12/08 05:24:17;;;;;;;19.07;11.60;;;;;;;-143.21;85.62;73770.06;5028758;28;20226;-76
2023/12/08 05:26:44;;;;;;;17.17;10.03;;;;;;;-143.21;86.10;73781.97;5030207;28;20193;-76
2023/12/08 05:29:11;;;;;;;16.93;10.17;;;;;;;-143.21;87.85;73793.88;5034271;28;20201;-76
2023/12/08 05:31:39;;;;;;;18.73;11.17;;;;;;;-143.21;88.49;73795.84;5033416;28;20190;-75
2023/12/08 05:34:05;;;;;;;18.67;11.00;;;;;;;-143.21;88.58;73797.84;5031242;28;20256;-75
2023/12/08 05:36:32;;;;;;;17.27;11.03;;;;;;;-143.21;88.75;73785.94;5033974;28;20202;-75
2023/12/08 05:38:59;;;;;;;14.23;9.40;;;;;;;-143.21;88.50;73787.91;5033849;28;20194;-75
2023/12/08 05:41:26;;;;;;;15.07;9.63;;;;;;;-143.21;88.36;73772.03;5033599;28;20578;-74
2023/12/08 05:43:55;;;;;;;16.30;10.00;;;;;;;-143.21;88.11;73760.13;5033571;28;20696;-76
2023/12/08 05:46:22;;;;;;;18.57;10.87;;;;;;;-143.21;87.61;73756.16;5027204;28;20198;-76
2023/12/08 05:48:50;;;;;;;17.27;10.03;;;;;;;-143.21;87.61;73752.19;5024756;28;20696;-75
2023/12/08 05:51:17;;;;;;;15.60;9.60;;;;;;;-143.21;86.85;73738.31;5026058;28;20218;-75
2023/12/08 05:53:44;;;;;;;14.13;9.10;;;;;;;-143.21;86.46;73748.22;5024299;28;20191;-76
2023/12/08 05:56:11;;;;;;;14.40;8.77;;;;;;;-143.21;84.76;73748.22;5022758;28;20217;-76
2023/12/08 05:58:38;;;;;;;12.50;8.17;;;;;;;-143.21;85.00;73764.09;5023093;28;20724;-76
2023/12/08 06:01:05;;;;;;;12.60;7.57;;;;;;;-143.21;84.88;73762.13;5014120;28;20638;-76
2023/12/08 06:03:32;;;;;;;12.97;8.33;;;;;;;-143.21;83.86;73762.13;5013985;28;20223;-76
2023/12/08 06:06:00;;;;;;;11.90;7.63;;;;;;;-143.21;84.38;73779.97;5014274;28;20203;-77
2023/12/08 06:08:27;;;;;;;13.40;7.80;;;;;;;-143.21;84.00;73768.06;5014051;28;20699;-76
2023/12/08 06:10:54;;;;;;;15.10;9.07;;;;;;;-143.21;84.05;73770.06;5014176;28;20199;-76
2023/12/08 06:13:20;;;;;;;18.17;9.50;;;;;;;-143.21;83.74;73756.16;5013592;28;20231;-77
2023/12/08 06:15:47;;;;;;;16.63;9.27;;;;;;;-143.21;82.84;73770.06;5013618;28;20298;-77
2023/12/08 06:18:14;;;;;;;18.43;10.27;;;;;;;-143.21;84.41;73789.91;5014155;28;20203;-77
2023/12/08 06:20:41;;;;;;;18.47;10.67;;;;;;;-143.21;86.48;73785.94;5014063;28;20601;-77
2023/12/08 06:23:09;;;;;;;20.27;11.10;;;;;;;-143.21;86.14;73781.97;5013825;28;20702;-75
2023/12/08 06:25:36;;;;;;;16.50;9.77;;;;;;;-143.21;86.03;73791.88;5013391;28;20572;-75
2023/12/08 06:28:02;;;;;;;14.37;9.27;;;;;;;-143.21;85.88;73789.91;5013798;28;20537;-81
2023/12/08 06:30:29;;;;;;;17.97;11.10;;;;;;;-143.21;85.60;73772.03;5014284;28;20195;-81
2023/12/08 06:32:56;;;;;;;19.83;10.97;;;;;;;-143.21;84.85;73772.03;5013777;28;20210;-80
2023/12/08 06:35:23;;;;;;;25.20;12.20;;;;;;;-143.21;84.67;73760.13;5013712;28;20206;-82
2023/12/08 06:37:51;;;;;;;23.27;12.97;;;;;;;-143.21;84.46;73756.16;5009794;28;20214;-77
2023/12/08 06:40:19;;;;;;;22.90;12.43;;;;;;;-143.21;84.86;73770.06;5013509;28;20543;-75
2023/12/08 06:42:46;;;;;;;17.97;10.53;;;;;;;-143.21;84.93;73770.06;5012859;28;20572;-76
2023/12/08 06:45:14;;;;;;;19.50;10.23;;;;;;;-143.21;85.09;73766.09;5013149;28;20230;-76
2023/12/08 06:47:41;;;;;;;15.13;9.73;;;;;;;-143.21;85.01;73766.09;5013050;28;20192;-76
2023/12/08 06:50:07;;;;;;;16.20;9.57;;;;;;;-143.21;84.47;73770.06;5012937;28;20192;-76
2023/12/08 06:52:34;;;;;;;15.77;10.03;;;;;;;-143.21;85.33;73791.88;5013030;28;20287;-76
2023/12/08 06:55:01;;;;;;;19.07;9.57;;;;;;;-143.21;86.00;73799.81;5013462;28;20199;-76
2023/12/08 06:57:29;;;;;;;19.40;10.30;;;;;;;-143.21;86.12;73787.91;5013011;28;20198;-74
2023/12/08 06:59:56;;;;;;;18.43;10.63;;;;;;;-143.21;85.96;73797.84;5012477;28;20198;-76
2023/12/08 07:02:23;;;;;;;21.63;10.80;;;;;;;-143.21;86.16;73783.94;5012917;28;20196;-75
2023/12/08 07:04:50;;;;;;;21.63;11.63;;;;;;;-143.21;85.55;73781.97;5012444;28;20281;-75
2023/12/08 07:07:17;;;;;;;21.30;11.77;;;;;;;-143.21;85.79;73766.09;5012607;28;20199;-76
2023/12/08 07:09:43;;;;;;;20.93;12.20;;;;;;;-143.21;85.59;73762.13;5012138;28;20274;-75
2023/12/08 07:12:10;;;;;;;21.93;12.40;;;;;;;-143.21;85.37;73752.19;5018046;28;20728;-76
2023/12/08 07:14:38;;;;;;;21.57;11.90;;;;;;;-143.21;84.62;73756.16;5031982;28;20645;-76
2023/12/08 07:17:05;;;;;;;20.03;12.00;;;;;;;-143.21;84.55;73776.00;5031937;28;20198;-75
2023/12/08 07:19:32;;;;;;;22.10;12.40;;;;;;;-143.21;85.99;73776.00;5031781;28;20289;-75
2023/12/08 07:21:59;;;;;;;24.87;14.73;;;;;;;-143.21;86.31;73764.09;5032191;28;20198;-76
2023/12/08 07:24:26;;;;;;;27.13;15.43;;;;;;;-143.21;85.99;73779.97;5031922;28;20215;-75
2023/12/08 07:26:54;;;;;;;25.20;16.43;;;;;;;-143.21;86.49;73778.00;5032347;28;20198;-76
2023/12/08 07:29:22;;;;;;;27.53;16.60;;;;;;;-143.21;86.41;73760.13;5031952;28;20647;-75
2023/12/08 07:31:51;;;;;;;22.77;13.67;;;;;;;-143.21;85.85;73758.16;5031559;28;20598;-75
2023/12/08 07:34:17;;;;;;;21.67;12.67;;;;;;;-143.21;86.19;73752.19;5031766;28;20195;-75
2023/12/08 07:36:44;;;;;;;22.73;12.00;;;;;;;-143.21;85.93;73744.25;5032150;28;20257;-74
2023/12/08 07:39:11;;;;;;;21.57;12.00;;;;;;;-143.21;85.62;73738.31;5031503;28;20202;-76
2023/12/08 07:41:40;;;;;;;20.90;11.83;;;;;;;-143.21;84.93;73732.38;5031123;28;20264;-76
2023/12/08 07:44:06;;;;;;;17.53;10.50;;;;;;;-143.21;85.06;73752.19;5031312;28;20250;-75
2023/12/08 07:46:33;;;;;;;21.97;12.63;;;;;;;-143.21;85.43;73779.97;5031280;28;20211;-76
2023/12/08 07:49:02;;;;;;;24.90;14.40;;;;;;;-143.21;85.64;73766.09;5031720;28;20627;-75
2023/12/08 07:51:29;;;;;;;22.47;14.40;;;;;;;-143.21;85.84;73781.97;5031578;28;20257;-75
2023/12/08 07:53:56;;;;;;;23.27;12.90;;;;;;;-143.21;86.01;73770.06;5031060;28;20285;-75
2023/12/08 07:56:23;;;;;;;20.07;12.13;;;;;;;-143.21;85.43;73779.97;5031698;28;20199;-76
2023/12/08 07:58:50;;;;;;;16.90;10.73;;;;;;;-143.21;85.80;73797.84;5031161;28;20199;-76
2023/12/08 08:01:17;;;;;;;16.50;10.70;;;;;;;-143.21;85.84;73819.66;5031659;28;20198;-75
2023/12/08 08:03:44;;;;;;;18.43;10.53;;;;;;;-143.21;86.06;73829.56;5031111;28;20226;-75
2023/12/08 08:06:12;;;;;;;22.13;12.00;;;;;;;-143.21;86.12;73803.78;5031888;28;20222;-76
2023/12/08 08:08:38;;;;;;;22.13;12.97;;;;;;;-143.21;85.69;73787.91;5031255;28;20205;-75
2023/12/08 08:11:05;;;;;;;25.23;14.10;;;;;;;-143.21;85.17;73779.97;5031523;28;20219;-75
2023/12/08 08:13:32;;;;;;;24.30;13.00;;;;;;;-143.21;84.57;73783.94;5030416;28;20234;-76
2023/12/08 08:15:59;;;;;;;19.73;10.80;;;;;;;-143.21;84.72;73787.91;5031319;28;20218;-76
2023/12/08 08:18:28;;;;;;;22.20;12.87;;;;;;;-143.21;85.52;73797.84;5031572;28;20197;-74
2023/12/08 08:20:55;;;;;;;23.57;13.83;;;;;;;-143.21;85.46;73787.91;5031148;28;20233;-76
2023/12/08 08:23:23;;;;;;;27.87;15.23;;;;;;;-143.21;85.52;73776.00;5030938;28;20200;-77
2023/12/08 08:25:51;;;;;;;25.83;13.00;;;;;;;-143.21;84.93;73770.06;5031046;28;20194;-76
2023/12/08 08:28:19;;;;;;;24.33;13.77;;;;;;;-143.21;85.29;73781.97;5031502;28;20284;-76
2023/12/08 08:30:45;;;;;;;29.43;16.57;;;;;;;-143.21;85.28;73774.03;5031262;28;20213;-76
2023/12/08 08:33:12;;;;;;;27.17;14.27;;;;;;;-143.21;85.14;73772.03;5031161;28;20209;-80
2023/12/08 08:35:41;;;;;;;31.70;16.13;;;;;;;-143.21;85.26;73756.16;5032690;28;20213;-78
2023/12/08 08:38:08;;;;;;;30.40;16.53;;;;;;;-143.21;84.92;73748.22;5031686;28;20244;-82
2023/12/08 08:40:36;;;;;;;28.00;15.53;;;;;;;-143.21;84.69;73736.34;5032010;28;20238;-85
2023/12/08 08:43:03;;;;;;;30.83;16.37;;;;;;;-143.21;84.14;73738.31;5031976;28;20195;-84
2023/12/08 08:45:30;;;;;;;27.67;16.10;;;;;;;-143.21;84.13;73728.41;5021943;28;20236;-84
2023/12/08 08:47:57;;;;;;;30.70;16.83;;;;;;;-143.21;84.12;73718.47;5011447;28;20195;-76
2023/12/08 08:50:24;;;;;;;27.53;15.03;;;;;;;-143.21;84.54;73740.28;5011275;28;20209;-76
2023/12/08 08:52:51;;;;;;;27.70;16.63;;;;;;;-143.21;84.35;73728.41;5010939;28;20283;-76
2023/12/08 08:55:18;;;;;;;24.67;15.10;;;;;;;-143.21;83.83;73716.50;5011118;28;20194;-76
2023/12/08 08:57:47;;;;;;;24.73;14.23;;;;;;;-143.21;83.27;73710.53;5013038;28;20195;-82
2023/12/08 09:00:14;;;;;;;23.80;13.30;;;;;;;-143.21;83.07;73720.47;5015781;28;20282;-83
2023/12/08 09:02:43;;;;;;;27.57;15.47;;;;;;;-143.21;83.04;73712.53;5015908;28;20230;-81
2023/12/08 09:05:10;;;;;;;23.83;12.90;;;;;;;-143.21;82.73;73716.50;5015405;28;20319;-82
2023/12/08 09:07:36;;;;;;;24.80;12.30;;;;;;;-143.21;82.97;73740.28;5015292;28;20206;-83
2023/12/08 09:10:06;;;;;;;23.80;13.57;;;;;;;-143.21;84.04;73762.13;5014818;28;20198;-84
2023/12/08 09:12:33;;;;;;;25.83;14.97;;;;;;;-143.21;84.89;73746.25;5015203;28;20317;-82
2023/12/08 09:15:01;;;;;;;27.17;15.93;;;;;;;-143.21;84.59;73730.38;5022286;28;20550;-82
2023/12/08 09:17:28;;;;;;;24.83;14.57;;;;;;;-143.21;84.12;73712.53;5035449;28;20191;-85
2023/12/08 09:19:55;;;;;;;27.33;15.07;;;;;;;-143.21;83.20;73700.63;5035639;28;20199;-86
2023/12/08 09:22:22;;;;;;;26.63;15.10;;;;;;;-143.21;82.78;73684.75;5035516;28;20268;-85
2023/12/08 09:24:49;;;;;;;30.80;16.00;;;;;;;-143.21;82.23;73670.84;5034777;28;20317;-79
2023/12/08 09:27:15;;;;;;;31.30;16.27;;;;;;;-143.21;81.92;73653.00;5034660;28;20191;-78
2023/12/08 09:29:42;;;;;;;32.13;17.37;;;;;;;-143.21;81.63;73643.09;5034389;28;20199;-86
2023/12/08 09:32:10;;;;;;;27.00;14.47;;;;;;;-143.21;81.31;73641.09;5035755;28;20248;-83
2023/12/08 09:34:38;;;;;;;23.87;14.27;;;;;;;-143.21;80.58;73625.22;5035216;28;20195;-87
2023/12/08 09:37:05;;;;;;;27.07;15.00;;;;;;;-143.21;80.52;73619.28;5036204;28;20198;-85
2023/12/08 09:39:32;;;;;;;31.00;16.60;;;;;;;-143.21;79.74;73615.31;5037587;28;20209;-84
2023/12/08 09:42:08;;;;;;;26.90;15.90;;;;;;;-143.21;79.76;73615.31;5028166;28;20209;-85
2023/12/08 09:44:35;;;;;;;25.50;13.10;;;;;;;-143.21;79.34;73647.06;5033196;28;20203;-83
2023/12/08 09:47:04;;;;;;;23.80;12.43;;;;;;;-143.21;80.63;73684.75;5015199;28;20188;-84
2023/12/08 09:49:42;;;;;;;27.00;15.00;;;;;;;-143.21;82.11;73690.69;5024735;28;20285;-85
2023/12/08 09:52:10;;;;;;;26.10;14.03;;;;;;;-143.21;83.15;73694.66;5034458;28;20266;-85
2023/12/08 09:54:37;;;;;;;18.97;10.67;;;;;;;-143.21;81.90;73668.88;5034293;28;20187;-85
2023/12/08 09:57:07;;;;;;;22.53;12.83;;;;;;;-143.21;81.09;73647.06;5036406;28;20210;-85
2023/12/08 09:59:34;;;;;;;27.33;15.07;;;;;;;-143.21;80.66;73635.16;5035584;28;20211;-85
2023/12/08 10:02:01;;;;;;;15.17;9.40;;;;;;;-143.21;80.10;73625.22;5035098;28;20199;-85
2023/12/08 10:04:28;;;;;;;20.43;10.70;;;;;;;-143.21;79.61;73611.34;5034480;28;20218;-85
2023/12/08 10:06:57;;;;;;;19.67;11.83;;;;;;;-143.21;80.23;73625.22;5034509;28;20194;-86
2023/12/08 10:09:24;;;;;;;20.40;11.60;;;;;;;-143.21;79.90;73605.38;5032927;28;20791;-85
2023/12/08 10:11:51;;;;;;;21.30;11.00;;;;;;;-143.21;79.49;73595.47;5033880;28;20223;-85
2023/12/08 10:14:20;;;;;;;22.10;11.27;;;;;;;-143.21;79.36;73599.44;5034336;28;20210;-85
2023/12/08 10:16:48;;;;;;;19.67;12.20;;;;;;;-143.21;79.87;73617.28;5014757;28;20229;-85
2023/12/08 10:19:15;;;;;;;22.43;12.23;;;;;;;-143.21;80.92;73629.19;5014818;28;20286;-84
2023/12/08 10:21:42;;;;;;;20.83;11.07;;;;;;;-143.21;81.03;73625.22;5025683;28;20195;-85
2023/12/08 10:24:10;;;;;;;18.40;11.17;;;;;;;-143.21;81.13;73629.19;5034155;28;20191;-85
2023/12/08 10:26:37;;;;;;;20.13;11.37;;;;;;;-143.21;80.65;73603.41;5035097;28;20203;-84
2023/12/08 10:29:04;;;;;;;19.40;11.30;;;;;;;-143.21;80.25;73615.31;5034332;28;20293;-84
2023/12/08 10:31:31;;;;;;;22.63;11.30;;;;;;;-143.21;80.58;73629.19;5034090;28;20190;-85
2023/12/08 10:33:58;;;;;;;20.77;12.00;;;;;;;-143.21;81.62;73637.13;5035936;28;20199;-86
2023/12/08 10:36:25;;;;;;;23.83;12.70;;;;;;;-143.21;80.60;73609.34;5034478;28;20195;-84
2023/12/08 10:38:52;;;;;;;23.77;13.37;;;;;;;-143.21;80.71;73605.38;5034770;28;20298;-85
2023/12/08 10:41:21;;;;;;;25.97;13.23;;;;;;;-143.21;81.41;73599.44;5033954;28;20198;-85
2023/12/08 10:43:48;;;;;;;23.60;13.03;;;;;;;-143.21;80.85;73593.50;5034505;28;20596;-85
2023/12/08 10:46:15;;;;;;;26.43;13.40;;;;;;;-143.21;80.40;73587.53;5035533;28;20286;-83
2023/12/08 10:48:43;;;;;;;20.27;11.10;;;;;;;-143.21;80.39;73595.47;5038312;28;20217;-83
2023/12/08 10:51:13;;;;;;;22.90;11.63;;;;;;;-143.21;80.29;73609.34;5037797;28;20194;-84
2023/12/08 10:53:41;;;;;;;21.13;11.77;;;;;;;-143.21;80.67;73619.28;5040973;28;20195;-84
2023/12/08 10:56:12;;;;;;;22.20;12.80;;;;;;;-143.21;79.55;73649.03;5039652;28;20183;-84
2023/12/08 10:58:42;;;;;;;29.57;14.63;;;;;;;-143.21;82.27;73653.00;5035020;28;20199;-85
2023/12/08 11:01:12;;;;;;;23.67;14.03;;;;;;;-143.21;83.50;73629.19;5034338;28;20217;-84
2023/12/08 11:03:40;;;;;;;23.27;14.20;;;;;;;-143.21;83.62;73625.22;5034055;28;20260;-80